sensor_id;sensor_type;location;lat;lon;timestamp;pressure;altitude;pressure_sealevel;temperature;humidity
84145;BME280;74264;48.988;12.040;2023-11-18T16:02:04;98477.94;;;4.47;87.01
84145;BME280;74264;48.988;12.040;2023-11-18T16:04:31;98474.28;;;4.49;86.81
84145;BME280;74264;48.988;12.040;2023-11-18T16:06:57;98475.84;;;4.52;86.45
84145;BME280;74264;48.988;12.040;2023-11-18T16:09:22;98468.78;;;4.52;86.52
84145;BME280;74264;48.988;12.040;2023-11-18T16:11:48;98471.53;;;4.51;86.73
84145;BME280;74264;48.988;12.040;2023-11-18T16:14:15;98470.91;;;4.47;86.62
84145;BME280;74264;48.988;12.040;2023-11-18T16:16:42;98474.28;;;4.49;86.82
84145;BME280;74264;48.988;12.040;2023-11-18T16:19:08;98474.03;;;4.52;87.06
84145;BME280;74264;48.988;12.040;2023-11-18T16:21:37;98476.53;;;4.54;86.49
84145;BME280;74264;48.988;12.040;2023-11-18T16:24:04;98476.53;;;4.54;86.46
84145;BME280;74264;48.988;12.040;2023-11-18T16:26:29;98478.09;;;4.56;86.78
84145;BME280;74264;48.988;12.040;2023-11-18T16:28:55;98484.19;;;4.57;86.02
84145;BME280;74264;48.988;12.040;2023-11-18T16:31:21;98485.97;;;4.56;86.44
84145;BME280;74264;48.988;12.040;2023-11-18T16:33:47;98479.66;;;4.59;86.54
84145;BME280;74264;48.988;12.040;2023-11-18T16:36:22;98485.63;;;4.61;85.68
84145;BME280;74264;48.988;12.040;2023-11-18T16:38:51;98480.72;;;4.56;87.00
84145;BME280;74264;48.988;12.040;2023-11-18T16:41:18;98483.44;;;4.55;86.93
84145;BME280;74264;48.988;12.040;2023-11-18T16:43:43;98482.72;;;4.53;86.76
84145;BME280;74264;48.988;12.040;2023-11-18T16:46:11;98473.56;;;4.58;85.96
84145;BME280;74264;48.988;12.040;2023-11-18T16:48:36;98480.94;;;4.53;86.77
84145;BME280;74264;48.988;12.040;2023-11-18T16:51:02;98484.38;;;4.54;86.58
84145;BME280;74264;48.988;12.040;2023-11-18T16:53:28;98487.84;;;4.54;86.71
84145;BME280;74264;48.988;12.040;2023-11-18T16:55:54;98486.31;;;4.52;86.76
84145;BME280;74264;48.988;12.040;2023-11-18T16:58:20;98488.94;;;4.52;86.82
84145;BME280;74264;48.988;12.040;2023-11-18T17:00:45;98485.97;;;4.56;86.80
84145;BME280;74264;48.988;12.040;2023-11-18T17:03:16;98490.72;;;4.51;87.27
84145;BME280;74264;48.988;12.040;2023-11-18T17:05:41;98499.78;;;4.47;87.40
84145;BME280;74264;48.988;12.040;2023-11-18T17:08:08;98501.22;;;4.51;86.72
84145;BME280;74264;48.988;12.040;2023-11-18T17:10:34;98498.59;;;4.51;86.56
84145;BME280;74264;48.988;12.040;2023-11-18T17:12:59;98505.50;;;4.52;86.45
84145;BME280;74264;48.988;12.040;2023-11-18T17:15:26;98520.28;;;4.53;86.69
84145;BME280;74264;48.988;12.040;2023-11-18T17:17:52;98527.19;;;4.54;86.88
84145;BME280;74264;48.988;12.040;2023-11-18T17:20:26;98530.78;;;4.53;87.18
84145;BME280;74264;48.988;12.040;2023-11-18T17:22:52;98525.75;;;4.50;87.17
84145;BME280;74264;48.988;12.040;2023-11-18T17:25:19;98524.34;;;4.46;87.32
84145;BME280;74264;48.988;12.040;2023-11-18T17:27:45;98513.94;;;4.45;87.90
84145;BME280;74264;48.988;12.040;2023-11-18T17:30:13;98512.16;;;4.45;87.47
84145;BME280;74264;48.988;12.040;2023-11-18T17:32:45;98494.97;;;4.41;87.88
84145;BME280;74264;48.988;12.040;2023-11-18T17:35:12;98499.41;;;4.41;87.89
84145;BME280;74264;48.988;12.040;2023-11-18T17:37:42;98493.19;;;4.42;87.58
84145;BME280;74264;48.988;12.040;2023-11-18T17:40:09;98482.94;;;4.39;87.31
84145;BME280;74264;48.988;12.040;2023-11-18T17:42:38;98484.00;;;4.36;87.41
84145;BME280;74264;48.988;12.040;2023-11-18T17:45:05;98470.19;;;4.34;87.87
84145;BME280;74264;48.988;12.040;2023-11-18T17:47:33;98464.22;;;4.32;87.38
84145;BME280;74264;48.988;12.040;2023-11-18T17:50:07;98465.19;;;4.31;87.37
84145;BME280;74264;48.988;12.040;2023-11-18T17:52:42;98457.53;;;4.28;87.80
84145;BME280;74264;48.988;12.040;2023-11-18T17:55:12;98461.97;;;4.28;87.98
84145;BME280;74264;48.988;12.040;2023-11-18T17:57:39;98468.38;;;4.24;87.95
84145;BME280;74264;48.988;12.040;2023-11-18T18:00:07;98472.44;;;4.28;87.79
84145;BME280;74264;48.988;12.040;2023-11-18T18:02:41;98476.59;;;4.30;88.24
84145;BME280;74264;48.988;12.040;2023-11-18T18:05:09;98468.84;;;4.29;87.47
84145;BME280;74264;48.988;12.040;2023-11-18T18:07:40;98458.38;;;4.29;87.72
84145;BME280;74264;48.988;12.040;2023-11-18T18:10:06;98461.97;;;4.28;88.03
84145;BME280;74264;48.988;12.040;2023-11-18T18:12:34;98453.97;;;4.29;88.43
84145;BME280;74264;48.988;12.040;2023-11-18T18:15:03;98463.28;;;4.33;88.59
84145;BME280;74264;48.988;12.040;2023-11-18T18:17:36;98458.97;;;4.32;88.46
84145;BME280;74264;48.988;12.040;2023-11-18T18:20:03;98459.22;;;4.29;88.49
84145;BME280;74264;48.988;12.040;2023-11-18T18:22:29;98456.81;;;4.26;88.33
84145;BME280;74264;48.988;12.040;2023-11-18T18:24:55;98453.38;;;4.26;88.08
84145;BME280;74264;48.988;12.040;2023-11-18T18:27:20;98450.97;;;4.23;87.91
84145;BME280;74264;48.988;12.040;2023-11-18T18:29:47;98441.56;;;4.20;88.34
84145;BME280;74264;48.988;12.040;2023-11-18T18:32:13;98439.28;;;4.16;88.64
84145;BME280;74264;48.988;12.040;2023-11-18T18:34:39;98432.13;;;4.18;88.53
84145;BME280;74264;48.988;12.040;2023-11-18T18:37:05;98433.81;;;4.19;88.54
84145;BME280;74264;48.988;12.040;2023-11-18T18:39:30;98442.63;;;4.18;89.08
84145;BME280;74264;48.988;12.040;2023-11-18T18:41:56;98443.22;;;4.21;88.87
84145;BME280;74264;48.988;12.040;2023-11-18T18:44:21;98439.88;;;4.19;88.51
84145;BME280;74264;48.988;12.040;2023-11-18T18:46:49;98433.56;;;4.22;88.82
84145;BME280;74264;48.988;12.040;2023-11-18T18:49:18;98433.34;;;4.25;89.49
84145;BME280;74264;48.988;12.040;2023-11-18T18:51:44;98435.84;;;4.26;89.51
84145;BME280;74264;48.988;12.040;2023-11-18T18:54:09;98418.31;;;4.27;89.98
84145;BME280;74264;48.988;12.040;2023-11-18T18:56:36;98412.97;;;4.28;90.17
84145;BME280;74264;48.988;12.040;2023-11-18T18:59:05;98423.44;;;4.28;89.81
84145;BME280;74264;48.988;12.040;2023-11-18T19:01:39;98426.91;;;4.29;90.16
84145;BME280;74264;48.988;12.040;2023-11-18T19:04:05;98417.16;;;4.31;90.26
84145;BME280;74264;48.988;12.040;2023-11-18T19:06:31;98415.97;;;4.35;90.39
84145;BME280;74264;48.988;12.040;2023-11-18T19:09:00;98410.84;;;4.33;90.04
84145;BME280;74264;48.988;12.040;2023-11-18T19:11:27;98401.19;;;4.34;91.01
84145;BME280;74264;48.988;12.040;2023-11-18T19:13:53;98392.59;;;4.32;90.22
84145;BME280;74264;48.988;12.040;2023-11-18T19:16:18;98380.44;;;4.31;90.65
84145;BME280;74264;48.988;12.040;2023-11-18T19:18:44;98373.56;;;4.30;90.55
84145;BME280;74264;48.988;12.040;2023-11-18T19:21:11;98366.28;;;4.33;90.64
84145;BME280;74264;48.988;12.040;2023-11-18T19:23:37;98363.66;;;4.33;90.35
84145;BME280;74264;48.988;12.040;2023-11-18T19:26:04;98351.03;;;4.38;90.28
84145;BME280;74264;48.988;12.040;2023-11-18T19:28:30;98347.44;;;4.39;90.34
84145;BME280;74264;48.988;12.040;2023-11-18T19:30:56;98336.00;;;4.40;89.67
84145;BME280;74264;48.988;12.040;2023-11-18T19:33:22;98335.28;;;4.38;89.72
84145;BME280;74264;48.988;12.040;2023-11-18T19:35:48;98326.97;;;4.33;89.81
84145;BME280;74264;48.988;12.040;2023-11-18T19:38:14;98323.84;;;4.28;89.80
84145;BME280;74264;48.988;12.040;2023-11-18T19:40:39;98317.88;;;4.26;89.91
84145;BME280;74264;48.988;12.040;2023-11-18T19:43:05;98310.25;;;4.23;90.20
84145;BME280;74264;48.988;12.040;2023-11-18T19:45:31;98304.19;;;4.23;89.76
84145;BME280;74264;48.988;12.040;2023-11-18T19:47:57;98291.44;;;4.18;90.25
84145;BME280;74264;48.988;12.040;2023-11-18T19:50:22;98291.19;;;4.21;90.46
84145;BME280;74264;48.988;12.040;2023-11-18T19:52:49;98294.19;;;4.17;90.26
84145;BME280;74264;48.988;12.040;2023-11-18T19:55:15;98297.63;;;4.17;90.73
84145;BME280;74264;48.988;12.040;2023-11-18T19:57:43;98300.16;;;4.19;90.33
84145;BME280;74264;48.988;12.040;2023-11-18T20:00:09;98302.53;;;4.22;90.57
84145;BME280;74264;48.988;12.040;2023-11-18T20:02:40;98304.91;;;4.25;90.42
84145;BME280;74264;48.988;12.040;2023-11-18T20:05:06;98307.53;;;4.25;91.05
84145;BME280;74264;48.988;12.040;2023-11-18T20:07:34;98308.97;;;4.29;90.32
84145;BME280;74264;48.988;12.040;2023-11-18T20:09:59;98307.78;;;4.33;90.68
84145;BME280;74264;48.988;12.040;2023-11-18T20:12:27;98309.41;;;4.34;90.29
84145;BME280;74264;48.988;12.040;2023-11-18T20:14:56;98303.59;;;4.41;89.57
84145;BME280;74264;48.988;12.040;2023-11-18T20:17:22;98299.66;;;4.47;88.61
84145;BME280;74264;48.988;12.040;2023-11-18T20:19:48;98300.13;;;4.52;89.53
84145;BME280;74264;48.988;12.040;2023-11-18T20:22:13;98299.41;;;4.50;89.90
84145;BME280;74264;48.988;12.040;2023-11-18T20:24:39;98299.41;;;4.50;90.47
84145;BME280;74264;48.988;12.040;2023-11-18T20:27:08;98299.03;;;4.54;90.34
84145;BME280;74264;48.988;12.040;2023-11-18T20:29:34;98288.56;;;4.54;90.08
84145;BME280;74264;48.988;12.040;2023-11-18T20:32:00;98283.44;;;4.53;90.32
84145;BME280;74264;48.988;12.040;2023-11-18T20:34:26;98278.31;;;4.51;90.17
84145;BME280;74264;48.988;12.040;2023-11-18T20:36:52;98267.84;;;4.51;90.39
84145;BME280;74264;48.988;12.040;2023-11-18T20:39:17;98272.34;;;4.49;90.36
84145;BME280;74264;48.988;12.040;2023-11-18T20:41:44;98270.69;;;4.48;90.29
84145;BME280;74264;48.988;12.040;2023-11-18T20:44:10;98259.13;;;4.51;90.12
84145;BME280;74264;48.988;12.040;2023-11-18T20:46:36;98252.09;;;4.51;89.45
84145;BME280;74264;48.988;12.040;2023-11-18T20:49:02;98253.75;;;4.52;89.26
84145;BME280;74264;48.988;12.040;2023-11-18T20:51:27;98242.31;;;4.53;89.09
84145;BME280;74264;48.988;12.040;2023-11-18T20:53:53;98235.53;;;4.51;89.59
84145;BME280;74264;48.988;12.040;2023-11-18T20:56:18;98219.78;;;4.51;89.43
84145;BME280;74264;48.988;12.040;2023-11-18T20:58:46;98205.03;;;4.50;89.90
84145;BME280;74264;48.988;12.040;2023-11-18T21:01:13;98194.06;;;4.45;90.23
84145;BME280;74264;48.988;12.040;2023-11-18T21:03:42;98184.41;;;4.45;90.18
84145;BME280;74264;48.988;12.040;2023-11-18T21:06:08;98182.03;;;4.42;89.45
84145;BME280;74264;48.988;12.040;2023-11-18T21:08:34;98174.03;;;4.44;89.96
84145;BME280;74264;48.988;12.040;2023-11-18T21:11:00;98160.22;;;4.42;89.62
84145;BME280;74264;48.988;12.040;2023-11-18T21:13:29;98153.34;;;4.41;90.02
84145;BME280;74264;48.988;12.040;2023-11-18T21:15:56;98143.22;;;4.36;90.59
84145;BME280;74264;48.988;12.040;2023-11-18T21:18:21;98159.78;;;4.37;90.13
84145;BME280;74264;48.988;12.040;2023-11-18T21:20:47;98163.09;;;4.39;90.02
84145;BME280;74264;48.988;12.040;2023-11-18T21:23:13;98150.34;;;4.34;89.29
84145;BME280;74264;48.988;12.040;2023-11-18T21:25:40;98131.06;;;4.35;89.22
84145;BME280;74264;48.988;12.040;2023-11-18T21:28:06;98131.28;;;4.32;90.06
84145;BME280;74264;48.988;12.040;2023-11-18T21:30:32;98133.22;;;4.30;90.66
84145;BME280;74264;48.988;12.040;2023-11-18T21:32:58;98132.28;;;4.31;90.58
84145;BME280;74264;48.988;12.040;2023-11-18T21:35:27;98132.97;;;4.33;90.38
84145;BME280;74264;48.988;12.040;2023-11-18T21:37:53;98139.03;;;4.34;90.24
84145;BME280;74264;48.988;12.040;2023-11-18T21:40:19;98154.88;;;4.32;90.55
84145;BME280;74264;48.988;12.040;2023-11-18T21:42:47;98158.34;;;4.33;90.77
84145;BME280;74264;48.988;12.040;2023-11-18T21:45:19;98155.47;;;4.36;91.10
84145;BME280;74264;48.988;12.040;2023-11-18T21:47:52;98153.94;;;4.33;91.51
84145;BME280;74264;48.988;12.040;2023-11-18T21:50:23;98145.25;;;4.33;90.75
84145;BME280;74264;48.988;12.040;2023-11-18T21:52:49;98150.63;;;4.31;91.06
84145;BME280;74264;48.988;12.040;2023-11-18T21:55:14;98158.34;;;4.33;90.93
84145;BME280;74264;48.988;12.040;2023-11-18T21:57:40;98152.25;;;4.32;91.39
84145;BME280;74264;48.988;12.040;2023-11-18T22:00:07;98144.53;;;4.31;90.14
84145;BME280;74264;48.988;12.040;2023-11-18T22:02:45;98144.41;;;4.32;91.01
84145;BME280;74264;48.988;12.040;2023-11-18T22:05:13;98156.56;;;4.33;90.81
84145;BME280;74264;48.988;12.040;2023-11-18T22:07:39;98154.88;;;4.32;90.54
84145;BME280;74264;48.988;12.040;2023-11-18T22:10:09;98134.88;;;4.31;90.30
84145;BME280;74264;48.988;12.040;2023-11-18T22:12:41;98120.81;;;4.32;90.98
84145;BME280;74264;48.988;12.040;2023-11-18T22:15:06;98114.84;;;4.30;91.63
84145;BME280;74264;48.988;12.040;2023-11-18T22:17:33;98104.38;;;4.30;91.79
84145;BME280;74264;48.988;12.040;2023-11-18T22:20:01;98095.69;;;4.30;91.00
84145;BME280;74264;48.988;12.040;2023-11-18T22:22:30;98086.03;;;4.30;91.46
84145;BME280;74264;48.988;12.040;2023-11-18T22:24:56;98073.03;;;4.29;91.16
84145;BME280;74264;48.988;12.040;2023-11-18T22:27:22;98074.03;;;4.28;91.93
84145;BME280;74264;48.988;12.040;2023-11-18T22:29:47;98069.72;;;4.27;91.34
84145;BME280;74264;48.988;12.040;2023-11-18T22:32:15;98073.88;;;4.29;91.45
84145;BME280;74264;48.988;12.040;2023-11-18T22:34:42;98061.72;;;4.28;91.35
84145;BME280;74264;48.988;12.040;2023-11-18T22:37:08;98049.72;;;4.26;91.40
84145;BME280;74264;48.988;12.040;2023-11-18T22:39:34;98054.25;;;4.24;91.75
84145;BME280;74264;48.988;12.040;2023-11-18T22:42:05;98065.56;;;4.24;91.50
84145;BME280;74264;48.988;12.040;2023-11-18T22:44:31;98059.50;;;4.24;90.97
84145;BME280;74264;48.988;12.040;2023-11-18T22:46:58;98043.78;;;4.24;91.32
84145;BME280;74264;48.988;12.040;2023-11-18T22:49:26;98023.66;;;4.24;91.92
84145;BME280;74264;48.988;12.040;2023-11-18T22:51:52;98015.88;;;4.23;91.68
84145;BME280;74264;48.988;12.040;2023-11-18T22:54:21;98030.09;;;4.20;91.40
84145;BME280;74264;48.988;12.040;2023-11-18T22:56:46;98019.75;;;4.19;91.15
84145;BME280;74264;48.988;12.040;2023-11-18T22:59:12;98030.31;;;4.17;90.82
84145;BME280;74264;48.988;12.040;2023-11-18T23:01:38;98027.69;;;4.17;91.80
84145;BME280;74264;48.988;12.040;2023-11-18T23:04:05;98034.75;;;4.17;91.21
84145;BME280;74264;48.988;12.040;2023-11-18T23:06:40;98028.81;;;4.15;91.23
84145;BME280;74264;48.988;12.040;2023-11-18T23:09:08;98027.38;;;4.11;91.64
84145;BME280;74264;48.988;12.040;2023-11-18T23:11:38;98022.84;;;4.13;92.31
84145;BME280;74264;48.988;12.040;2023-11-18T23:14:11;98021.44;;;4.09;91.68
84145;BME280;74264;48.988;12.040;2023-11-18T23:16:37;98019.66;;;4.09;92.39
84145;BME280;74264;48.988;12.040;2023-11-18T23:19:03;98028.59;;;4.07;91.57
84145;BME280;74264;48.988;12.040;2023-11-18T23:21:28;98018.94;;;4.07;92.10
84145;BME280;74264;48.988;12.040;2023-11-18T23:23:55;98017.97;;;4.08;92.27
84145;BME280;74264;48.988;12.040;2023-11-18T23:26:22;98009.41;;;4.06;92.16
84145;BME280;74264;48.988;12.040;2023-11-18T23:28:48;98013.84;;;4.06;91.90
84145;BME280;74264;48.988;12.040;2023-11-18T23:31:15;98008.69;;;4.04;92.31
84145;BME280;74264;48.988;12.040;2023-11-18T23:33:41;98012.03;;;4.06;92.66
84145;BME280;74264;48.988;12.040;2023-11-18T23:36:07;98013.94;;;4.04;92.26
84145;BME280;74264;48.988;12.040;2023-11-18T23:38:36;98013.25;;;4.02;92.05
84145;BME280;74264;48.988;12.040;2023-11-18T23:41:03;98011.56;;;4.01;92.28
84145;BME280;74264;48.988;12.040;2023-11-18T23:43:28;98018.50;;;4.02;92.32
84145;BME280;74264;48.988;12.040;2023-11-18T23:45:55;98006.34;;;4.01;92.09
84145;BME280;74264;48.988;12.040;2023-11-18T23:48:22;98017.66;;;4.01;92.46
84145;BME280;74264;48.988;12.040;2023-11-18T23:50:48;98008.25;;;3.99;92.03
84145;BME280;74264;48.988;12.040;2023-11-18T23:53:14;97993.50;;;3.98;92.83
84145;BME280;74264;48.988;12.040;2023-11-18T23:55:40;97994.31;;;3.98;92.88
84145;BME280;74264;48.988;12.040;2023-11-18T23:58:05;97991.69;;;3.98;92.53
